createdAt,value
2023-02-15T00:03:24.447Z,3.33
2023-02-15T00:08:28.198Z,7.65
2023-02-15T00:13:32.822Z,4.18
2023-02-15T00:18:36.938Z,6.27
2023-02-15T00:23:40.872Z,3.45
2023-02-15T00:28:44.792Z,5.35
2023-02-15T00:33:48.828Z,2.42
2023-02-15T00:38:52.737Z,0.52
2023-02-15T00:43:56.831Z,3.22
2023-02-15T00:49:00.877Z,2.85
2023-02-15T00:54:04.862Z,3.30
2023-02-15T00:59:10.477Z,0.88
2023-02-15T01:04:14.382Z,6.57
2023-02-15T01:09:18.163Z,4.97
2023-02-15T01:14:22.154Z,5.80
2023-02-15T01:19:26.998Z,1.40
2023-02-15T01:24:30.950Z,0.43
2023-02-15T01:29:34.993Z,5.22
2023-02-15T01:39:42.313Z,6.32
2023-02-15T01:45:01.586Z,2.10
2023-02-15T01:50:20.550Z,3.60
2023-02-15T01:55:28.291Z,5.00
2023-02-15T02:00:32.401Z,3.87
2023-02-15T02:10:41.003Z,1.90
2023-02-15T02:16:09.273Z,3.10
2023-02-15T02:21:52.146Z,0.67
2023-02-15T02:27:20.309Z,5.67
2023-02-15T02:33:02.847Z,5.77
2023-02-15T02:38:06.618Z,4.00
2023-02-15T02:43:32.960Z,5.60
2023-02-15T02:48:36.937Z,4.53
2023-02-15T02:53:40.723Z,4.25
2023-02-15T02:58:53.640Z,1.58
2023-02-15T03:04:13.930Z,1.92
2023-02-15T03:09:47.449Z,1.30
2023-02-15T03:15:17.693Z,4.95
2023-02-15T03:20:36.063Z,2.30
2023-02-15T03:25:44.243Z,4.43
2023-02-15T03:30:55.660Z,8.80
2023-02-15T03:36:02.489Z,4.93
2023-02-15T03:41:11.617Z,5.63
2023-02-15T03:46:45.987Z,7.20
2023-02-15T03:51:54.287Z,8.77
2023-02-15T03:57:19.850Z,8.87
2023-02-15T04:02:32.128Z,9.83
2023-02-15T04:07:36.006Z,10.47
2023-02-15T04:12:39.727Z,6.43
2023-02-15T04:17:43.637Z,8.73
2023-02-15T04:23:06.116Z,11.80
2023-02-15T04:28:10.051Z,10.50
2023-02-15T04:33:14.259Z,9.83
2023-02-15T04:38:18.049Z,13.10
2023-02-15T04:43:22.104Z,10.93
2023-02-15T04:48:26.125Z,12.83
2023-02-15T04:53:29.914Z,11.77
2023-02-15T04:58:33.965Z,13.70
2023-02-15T05:03:37.905Z,11.47
2023-02-15T05:08:41.878Z,12.13
2023-02-15T05:13:45.993Z,13.73
2023-02-15T05:18:49.767Z,15.13
2023-02-15T05:23:53.900Z,13.37
2023-02-15T05:28:57.771Z,15.73
2023-02-15T05:34:02.647Z,15.63
2023-02-15T05:39:07.766Z,17.73
2023-02-15T05:44:11.586Z,17.47
2023-02-15T05:49:15.545Z,18.50
2023-02-15T05:54:19.289Z,17.23
2023-02-15T05:59:23.151Z,17.50
2023-02-15T06:04:27.190Z,17.70
2023-02-15T06:09:31.069Z,18.43
2023-02-15T06:14:35.150Z,18.50
2023-02-15T06:19:39.164Z,19.63
2023-02-15T06:24:44.419Z,21.30
2023-02-15T06:29:48.169Z,23.17
2023-02-15T06:34:52.302Z,26.33
2023-02-15T06:39:56.342Z,22.43
2023-02-15T06:45:01.877Z,29.43
2023-02-15T06:50:09.560Z,34.30
2023-02-15T06:55:13.427Z,37.80
2023-02-15T07:00:17.689Z,36.13
2023-02-15T07:05:21.870Z,35.63
2023-02-15T07:10:27.152Z,35.10
2023-02-15T07:15:31.248Z,35.00
2023-02-15T07:20:37.735Z,35.37
2023-02-15T07:25:41.620Z,35.10
2023-02-15T07:30:45.768Z,34.37
2023-02-15T07:35:56.030Z,35.23
2023-02-15T07:41:01.253Z,33.87
2023-02-15T07:46:10.921Z,31.43
2023-02-15T07:51:16.252Z,30.33
2023-02-15T07:56:20.134Z,28.00
2023-02-15T08:01:32.003Z,28.63
2023-02-15T08:06:37.980Z,25.23
2023-02-15T08:11:42.345Z,30.40
2023-02-15T08:16:50.073Z,28.03
2023-02-15T08:22:02.664Z,27.07
2023-02-15T08:27:11.469Z,24.97
2023-02-15T08:32:15.757Z,22.43
2023-02-15T08:37:20.352Z,21.57
2023-02-15T08:42:24.455Z,22.07
2023-02-15T08:47:28.312Z,21.13
2023-02-15T08:52:32.381Z,22.40
2023-02-15T08:57:37.733Z,22.97
2023-02-15T09:02:41.676Z,23.87
2023-02-15T09:07:46.461Z,21.83
2023-02-15T09:12:51.728Z,23.60
2023-02-15T09:17:55.706Z,23.60
2023-02-15T09:23:00.005Z,23.23
2023-02-15T09:28:05.383Z,25.33
2023-02-15T09:33:09.195Z,26.33
2023-02-15T09:38:13.853Z,26.63
2023-02-15T09:43:37.081Z,25.67
2023-02-15T09:48:43.147Z,28.00
2023-02-15T09:54:10.471Z,26.73
2023-02-15T10:04:41.916Z,28.33
2023-02-15T10:10:12.277Z,30.40
2023-02-15T10:15:54.873Z,33.23
2023-02-15T10:21:25.885Z,28.27
2023-02-15T10:26:45.976Z,32.47
2023-02-15T10:31:52.491Z,29.97
2023-02-15T10:37:08.048Z,29.13
2023-02-15T10:42:32.651Z,28.47
2023-02-15T10:47:55.655Z,24.30
2023-02-15T10:53:27.227Z,27.57
2023-02-15T10:58:47.368Z,27.77
2023-02-15T11:04:09.908Z,23.47
2023-02-15T11:09:22.102Z,26.37
2023-02-15T11:14:40.994Z,24.63
2023-02-15T11:20:02.364Z,24.03
2023-02-15T11:25:22.452Z,26.97
2023-02-15T11:30:47.480Z,24.13
2023-02-15T11:36:05.104Z,22.90
2023-02-15T11:41:25.836Z,22.77
2023-02-15T11:46:30.383Z,22.27
2023-02-15T11:51:34.393Z,21.80
2023-02-15T11:56:38.468Z,22.63
2023-02-15T12:01:47.025Z,22.60
2023-02-15T12:07:02.966Z,20.87
2023-02-15T12:12:23.280Z,21.17
2023-02-15T12:17:39.831Z,19.63
2023-02-15T12:23:04.527Z,19.02
2023-02-15T12:28:42.616Z,17.50
2023-02-15T12:33:49.798Z,16.73
2023-02-15T12:44:33.293Z,17.97
2023-02-15T12:49:40.307Z,19.20
2023-02-15T12:54:45.201Z,18.33
2023-02-15T12:59:58.367Z,32.03
2023-02-15T13:05:29.418Z,43.80
2023-02-15T13:10:38.625Z,44.70
2023-02-15T13:15:47.117Z,33.87
2023-02-15T13:20:52.388Z,40.10
2023-02-15T13:26:00.139Z,23.37
2023-02-15T13:31:04.357Z,20.17
2023-02-15T13:36:12.233Z,17.60
2023-02-15T13:41:22.361Z,16.50
2023-02-15T13:46:32.535Z,18.23
2023-02-15T13:51:58.237Z,19.73
2023-02-15T13:57:23.115Z,21.07
2023-02-15T14:02:27.691Z,18.87
2023-02-15T14:08:02.350Z,16.63
2023-02-15T14:13:50.717Z,14.93
2023-02-15T14:19:07.284Z,17.40
2023-02-15T14:24:27.195Z,14.95
2023-02-15T14:29:37.365Z,14.10
2023-02-15T14:34:47.793Z,11.40
2023-02-15T14:40:19.093Z,15.03
2023-02-15T14:45:58.269Z,14.60
2023-02-15T14:51:03.101Z,12.90
2023-02-15T14:56:20.335Z,17.57
2023-02-15T15:01:32.169Z,13.80
2023-02-15T15:06:39.569Z,15.30
2023-02-15T15:11:52.542Z,13.17
2023-02-15T15:16:56.733Z,11.67
2023-02-15T15:22:06.731Z,14.23
2023-02-15T15:27:38.226Z,14.27
2023-02-15T15:32:49.490Z,13.17
2023-02-15T15:38:27.165Z,13.73
2023-02-15T15:43:39.738Z,17.77
2023-02-15T15:48:43.832Z,14.90
2023-02-15T15:53:54.688Z,16.80
2023-02-15T15:59:04.826Z,14.33
2023-02-15T16:04:15.286Z,13.73
2023-02-15T16:09:22.160Z,16.27
2023-02-15T16:14:41.413Z,13.13
2023-02-15T16:19:47.115Z,18.47
2023-02-15T16:29:54.868Z,11.37
2023-02-15T16:35:04.822Z,12.93
2023-02-15T16:40:40.597Z,11.80
2023-02-15T16:45:45.319Z,17.00
2023-02-15T16:50:56.988Z,16.90
2023-02-15T16:56:04.174Z,13.50
2023-02-15T17:01:11.670Z,11.93
2023-02-15T17:06:28.166Z,15.67
2023-02-15T17:11:38.188Z,13.57
2023-02-15T17:16:53.061Z,14.43
2023-02-15T17:22:06.631Z,15.70
2023-02-15T17:27:26.674Z,16.43
2023-02-15T17:32:33.140Z,19.40
2023-02-15T17:37:40.091Z,15.73
2023-02-15T17:42:43.889Z,17.37
2023-02-15T17:47:50.002Z,14.17
2023-02-15T17:52:57.412Z,14.10
2023-02-15T17:58:01.469Z,15.30
2023-02-15T18:03:23.599Z,13.60
2023-02-15T18:08:48.200Z,14.73
2023-02-15T18:13:52.124Z,12.85
2023-02-15T18:18:57.995Z,15.67
2023-02-15T18:24:01.778Z,14.03
2023-02-15T18:29:05.685Z,10.77
2023-02-15T18:34:32.065Z,14.80
2023-02-15T18:39:56.244Z,19.30
2023-02-15T18:45:04.897Z,19.00
2023-02-15T18:50:09.781Z,15.53
2023-02-15T18:55:25.928Z,13.52
2023-02-15T19:00:35.475Z,22.33
2023-02-15T19:05:39.478Z,20.67
2023-02-15T19:10:44.600Z,11.43
2023-02-15T19:20:52.246Z,17.27
2023-02-15T19:25:56.175Z,15.20
2023-02-15T19:31:00.008Z,18.47
2023-02-15T19:36:05.228Z,16.30
2023-02-15T19:41:17.477Z,14.27
2023-02-15T19:46:22.414Z,19.30
2023-02-15T19:51:27.632Z,7.85
2023-02-15T19:56:31.518Z,9.03
2023-02-15T20:01:35.561Z,11.50
2023-02-15T20:06:39.635Z,19.00
2023-02-15T20:11:43.478Z,23.67
2023-02-15T20:16:47.466Z,16.20
2023-02-15T20:21:55.159Z,8.32
2023-02-15T20:27:00.878Z,14.40
2023-02-15T20:32:04.841Z,9.63
2023-02-15T20:37:24.276Z,16.30
2023-02-15T20:42:28.235Z,10.97
2023-02-15T20:47:32.059Z,11.17
2023-02-15T20:52:36.805Z,12.23
2023-02-15T20:57:40.582Z,15.93
2023-02-15T21:02:44.876Z,10.00
2023-02-15T21:07:49.503Z,12.82
2023-02-15T21:12:54.023Z,9.82
2023-02-15T21:18:01.813Z,10.38
2023-02-15T21:23:07.617Z,10.10
2023-02-15T21:28:19.622Z,12.23
2023-02-15T21:33:23.450Z,10.60
2023-02-15T21:38:31.741Z,9.10
2023-02-15T21:43:53.929Z,17.30
2023-02-15T21:48:57.897Z,12.37
2023-02-15T21:54:01.695Z,15.00
2023-02-15T21:59:14.345Z,8.80
2023-02-15T22:04:28.554Z,8.53
2023-02-15T22:09:32.345Z,11.73
2023-02-15T22:14:40.081Z,10.63
2023-02-15T22:19:45.716Z,10.27
2023-02-15T22:24:52.582Z,6.83
2023-02-15T22:29:56.818Z,3.27
2023-02-15T22:35:00.669Z,10.45
2023-02-15T22:40:04.962Z,14.38
2023-02-15T22:45:20.232Z,8.60
2023-02-15T22:50:27.105Z,13.37
2023-02-15T22:55:37.394Z,13.47
2023-02-15T23:00:41.451Z,11.33
2023-02-15T23:05:46.741Z,12.45
2023-02-15T23:10:57.706Z,12.30
2023-02-15T23:16:04.073Z,10.73
2023-02-15T23:21:14.180Z,8.70
2023-02-15T23:26:25.782Z,10.13
2023-02-15T23:31:32.831Z,9.30
2023-02-15T23:36:39.425Z,11.23
2023-02-15T23:41:43.182Z,8.47
2023-02-15T23:46:49.746Z,11.67
2023-02-15T23:51:56.736Z,7.17
2023-02-15T23:57:03.095Z,8.10
